sensor_id;sensor_type;location;lat;lon;timestamp;temperature;humidity
49861;DHT22;35761;48.826;9.238;2023-04-24T00:02:17;11.30;70.50
49861;DHT22;35761;48.826;9.238;2023-04-24T00:04:49;11.20;71.40
49861;DHT22;35761;48.826;9.238;2023-04-24T00:07:20;11.20;72.30
49861;DHT22;35761;48.826;9.238;2023-04-24T00:09:50;11.20;70.80
49861;DHT22;35761;48.826;9.238;2023-04-24T00:12:21;11.20;72.00
49861;DHT22;35761;48.826;9.238;2023-04-24T00:14:54;11.20;72.90
49861;DHT22;35761;48.826;9.238;2023-04-24T00:17:25;11.30;74.10
49861;DHT22;35761;48.826;9.238;2023-04-24T00:19:56;11.30;75.30
49861;DHT22;35761;48.826;9.238;2023-04-24T00:22:29;11.30;78.70
49861;DHT22;35761;48.826;9.238;2023-04-24T00:25:01;11.30;92.90
49861;DHT22;35761;48.826;9.238;2023-04-24T00:27:31;11.20;78.20
49861;DHT22;35761;48.826;9.238;2023-04-24T00:30:07;11.30;76.70
49861;DHT22;35761;48.826;9.238;2023-04-24T00:32:38;11.30;73.00
49861;DHT22;35761;48.826;9.238;2023-04-24T00:35:09;11.30;65.80
49861;DHT22;35761;48.826;9.238;2023-04-24T00:37:40;11.30;64.70
49861;DHT22;35761;48.826;9.238;2023-04-24T00:40:11;11.30;65.30
49861;DHT22;35761;48.826;9.238;2023-04-24T00:42:43;11.30;64.70
49861;DHT22;35761;48.826;9.238;2023-04-24T00:45:16;11.40;64.00
49861;DHT22;35761;48.826;9.238;2023-04-24T00:47:48;11.40;64.70
49861;DHT22;35761;48.826;9.238;2023-04-24T00:50:21;11.40;64.10
49861;DHT22;35761;48.826;9.238;2023-04-24T00:52:51;11.30;64.50
49861;DHT22;35761;48.826;9.238;2023-04-24T00:55:22;11.30;62.70
49861;DHT22;35761;48.826;9.238;2023-04-24T00:57:53;11.30;62.50
49861;DHT22;35761;48.826;9.238;2023-04-24T01:00:26;11.40;62.10
49861;DHT22;35761;48.826;9.238;2023-04-24T01:02:58;11.40;61.30
49861;DHT22;35761;48.826;9.238;2023-04-24T01:05:30;11.40;59.90
49861;DHT22;35761;48.826;9.238;2023-04-24T01:08:01;11.40;59.70
49861;DHT22;35761;48.826;9.238;2023-04-24T01:10:33;11.50;60.00
49861;DHT22;35761;48.826;9.238;2023-04-24T01:13:05;11.50;59.10
49861;DHT22;35761;48.826;9.238;2023-04-24T01:15:38;11.50;59.90
49861;DHT22;35761;48.826;9.238;2023-04-24T01:18:09;11.50;59.50
49861;DHT22;35761;48.826;9.238;2023-04-24T01:20:40;11.40;60.30
49861;DHT22;35761;48.826;9.238;2023-04-24T01:23:14;11.50;59.40
49861;DHT22;35761;48.826;9.238;2023-04-24T01:25:45;11.50;59.80
49861;DHT22;35761;48.826;9.238;2023-04-24T01:28:17;11.40;60.10
49861;DHT22;35761;48.826;9.238;2023-04-24T01:30:48;11.40;59.80
49861;DHT22;35761;48.826;9.238;2023-04-24T01:33:22;11.40;59.60
49861;DHT22;35761;48.826;9.238;2023-04-24T01:35:52;11.40;59.60
49861;DHT22;35761;48.826;9.238;2023-04-24T01:38:26;11.40;59.00
49861;DHT22;35761;48.826;9.238;2023-04-24T01:40:59;11.50;59.30
49861;DHT22;35761;48.826;9.238;2023-04-24T01:43:30;11.40;59.40
49861;DHT22;35761;48.826;9.238;2023-04-24T01:46:00;11.30;59.70
49861;DHT22;35761;48.826;9.238;2023-04-24T01:48:35;11.40;59.00
49861;DHT22;35761;48.826;9.238;2023-04-24T01:51:06;11.40;59.20
49861;DHT22;35761;48.826;9.238;2023-04-24T01:53:39;11.40;59.40
49861;DHT22;35761;48.826;9.238;2023-04-24T01:56:10;11.40;59.40
49861;DHT22;35761;48.826;9.238;2023-04-24T01:58:41;11.50;59.40
49861;DHT22;35761;48.826;9.238;2023-04-24T02:01:15;11.40;59.00
49861;DHT22;35761;48.826;9.238;2023-04-24T02:03:48;11.40;59.50
49861;DHT22;35761;48.826;9.238;2023-04-24T02:06:19;11.40;60.00
49861;DHT22;35761;48.826;9.238;2023-04-24T02:08:52;11.30;60.30
49861;DHT22;35761;48.826;9.238;2023-04-24T02:11:22;11.30;60.10
49861;DHT22;35761;48.826;9.238;2023-04-24T02:13:53;11.30;60.60
49861;DHT22;35761;48.826;9.238;2023-04-24T02:16:23;11.30;60.70
49861;DHT22;35761;48.826;9.238;2023-04-24T02:18:54;11.30;60.00
49861;DHT22;35761;48.826;9.238;2023-04-24T02:21:24;11.30;60.30
49861;DHT22;35761;48.826;9.238;2023-04-24T02:23:57;11.30;60.10
49861;DHT22;35761;48.826;9.238;2023-04-24T02:26:28;11.30;60.30
49861;DHT22;35761;48.826;9.238;2023-04-24T02:28:58;11.20;60.70
49861;DHT22;35761;48.826;9.238;2023-04-24T02:31:29;11.20;59.80
49861;DHT22;35761;48.826;9.238;2023-04-24T02:34:00;11.20;59.10
49861;DHT22;35761;48.826;9.238;2023-04-24T02:36:31;11.20;59.80
49861;DHT22;35761;48.826;9.238;2023-04-24T02:39:04;11.20;59.80
49861;DHT22;35761;48.826;9.238;2023-04-24T02:41:35;11.20;59.50
49861;DHT22;35761;48.826;9.238;2023-04-24T02:44:08;11.30;59.80
49861;DHT22;35761;48.826;9.238;2023-04-24T02:46:39;11.30;59.90
49861;DHT22;35761;48.826;9.238;2023-04-24T02:49:09;11.30;60.60
49861;DHT22;35761;48.826;9.238;2023-04-24T02:51:40;11.20;61.50
49861;DHT22;35761;48.826;9.238;2023-04-24T02:54:13;11.20;63.30
49861;DHT22;35761;48.826;9.238;2023-04-24T02:56:43;11.20;65.00
49861;DHT22;35761;48.826;9.238;2023-04-24T02:59:14;11.10;67.80
49861;DHT22;35761;48.826;9.238;2023-04-24T03:01:44;11.10;68.00
49861;DHT22;35761;48.826;9.238;2023-04-24T03:04:15;11.00;69.00
49861;DHT22;35761;48.826;9.238;2023-04-24T03:06:48;10.90;70.60
49861;DHT22;35761;48.826;9.238;2023-04-24T03:09:22;10.90;74.40
49861;DHT22;35761;48.826;9.238;2023-04-24T03:11:53;10.90;70.10
49861;DHT22;35761;48.826;9.238;2023-04-24T03:14:25;10.90;68.40
49861;DHT22;35761;48.826;9.238;2023-04-24T03:16:58;10.80;67.20
49861;DHT22;35761;48.826;9.238;2023-04-24T03:19:28;10.80;66.80
49861;DHT22;35761;48.826;9.238;2023-04-24T03:22:04;10.80;67.70
49861;DHT22;35761;48.826;9.238;2023-04-24T03:24:40;10.80;67.20
49861;DHT22;35761;48.826;9.238;2023-04-24T03:27:12;10.80;67.20
49861;DHT22;35761;48.826;9.238;2023-04-24T03:29:49;10.80;67.50
49861;DHT22;35761;48.826;9.238;2023-04-24T03:32:29;10.80;67.60
49861;DHT22;35761;48.826;9.238;2023-04-24T03:35:01;10.80;67.70
49861;DHT22;35761;48.826;9.238;2023-04-24T03:37:32;10.80;67.00
49861;DHT22;35761;48.826;9.238;2023-04-24T03:40:25;10.80;67.30
49861;DHT22;35761;48.826;9.238;2023-04-24T03:42:58;10.80;66.90
49861;DHT22;35761;48.826;9.238;2023-04-24T03:45:28;10.80;66.60
49861;DHT22;35761;48.826;9.238;2023-04-24T03:47:59;10.80;66.90
49861;DHT22;35761;48.826;9.238;2023-04-24T03:50:30;10.80;67.70
49861;DHT22;35761;48.826;9.238;2023-04-24T03:53:00;10.80;67.60
49861;DHT22;35761;48.826;9.238;2023-04-24T03:55:39;10.80;67.60
49861;DHT22;35761;48.826;9.238;2023-04-24T03:58:10;10.70;67.60
49861;DHT22;35761;48.826;9.238;2023-04-24T04:00:41;10.70;67.70
49861;DHT22;35761;48.826;9.238;2023-04-24T04:03:36;10.70;67.40
49861;DHT22;35761;48.826;9.238;2023-04-24T04:06:07;10.60;67.90
49861;DHT22;35761;48.826;9.238;2023-04-24T04:08:40;10.70;67.20
49861;DHT22;35761;48.826;9.238;2023-04-24T04:11:14;10.60;67.20
49861;DHT22;35761;48.826;9.238;2023-04-24T04:13:45;10.60;66.90
49861;DHT22;35761;48.826;9.238;2023-04-24T04:16:18;10.60;67.00
49861;DHT22;35761;48.826;9.238;2023-04-24T04:18:53;10.60;67.40
49861;DHT22;35761;48.826;9.238;2023-04-24T04:21:23;10.60;67.70
49861;DHT22;35761;48.826;9.238;2023-04-24T04:24:05;10.70;67.40
49861;DHT22;35761;48.826;9.238;2023-04-24T04:26:41;10.70;66.80
49861;DHT22;35761;48.826;9.238;2023-04-24T04:29:23;10.70;66.70
49861;DHT22;35761;48.826;9.238;2023-04-24T04:32:10;10.60;68.20
49861;DHT22;35761;48.826;9.238;2023-04-24T04:34:41;10.60;69.70
49861;DHT22;35761;48.826;9.238;2023-04-24T04:37:12;10.70;70.00
49861;DHT22;35761;48.826;9.238;2023-04-24T04:40:08;10.70;62.50
49861;DHT22;35761;48.826;9.238;2023-04-24T04:42:51;10.70;62.80
49861;DHT22;35761;48.826;9.238;2023-04-24T04:45:24;10.60;63.90
49861;DHT22;35761;48.826;9.238;2023-04-24T04:48:14;10.60;63.40
49861;DHT22;35761;48.826;9.238;2023-04-24T04:50:46;10.60;61.80
49861;DHT22;35761;48.826;9.238;2023-04-24T04:53:17;10.60;61.80
49861;DHT22;35761;48.826;9.238;2023-04-24T04:55:47;10.50;70.50
49861;DHT22;35761;48.826;9.238;2023-04-24T04:58:22;10.40;68.10
49861;DHT22;35761;48.826;9.238;2023-04-24T05:00:56;10.40;63.00
49861;DHT22;35761;48.826;9.238;2023-04-24T05:03:39;10.40;59.40
49861;DHT22;35761;48.826;9.238;2023-04-24T05:06:13;10.40;71.30
49861;DHT22;35761;48.826;9.238;2023-04-24T05:08:45;10.40;70.90
49861;DHT22;35761;48.826;9.238;2023-04-24T05:11:41;10.40;69.30
49861;DHT22;35761;48.826;9.238;2023-04-24T05:14:14;10.30;73.30
49861;DHT22;35761;48.826;9.238;2023-04-24T05:16:46;10.30;74.90
49861;DHT22;35761;48.826;9.238;2023-04-24T05:19:19;10.20;78.60
49861;DHT22;35761;48.826;9.238;2023-04-24T05:21:50;10.20;75.10
49861;DHT22;35761;48.826;9.238;2023-04-24T05:24:20;10.20;74.90
49861;DHT22;35761;48.826;9.238;2023-04-24T05:27:13;10.20;74.60
49861;DHT22;35761;48.826;9.238;2023-04-24T05:29:46;10.30;72.60
49861;DHT22;35761;48.826;9.238;2023-04-24T05:32:17;10.30;73.70
49861;DHT22;35761;48.826;9.238;2023-04-24T05:34:48;10.30;72.90
49861;DHT22;35761;48.826;9.238;2023-04-24T05:37:19;10.30;74.20
49861;DHT22;35761;48.826;9.238;2023-04-24T05:39:49;10.30;73.40
49861;DHT22;35761;48.826;9.238;2023-04-24T05:42:20;10.20;72.70
49861;DHT22;35761;48.826;9.238;2023-04-24T05:44:53;10.10;73.80
49861;DHT22;35761;48.826;9.238;2023-04-24T05:47:24;10.10;73.50
49861;DHT22;35761;48.826;9.238;2023-04-24T05:49:54;10.00;71.40
49861;DHT22;35761;48.826;9.238;2023-04-24T05:52:25;10.00;70.50
49861;DHT22;35761;48.826;9.238;2023-04-24T05:54:56;10.00;71.10
49861;DHT22;35761;48.826;9.238;2023-04-24T05:57:31;10.00;69.80
49861;DHT22;35761;48.826;9.238;2023-04-24T06:00:07;10.00;71.20
49861;DHT22;35761;48.826;9.238;2023-04-24T06:02:49;10.00;70.60
49861;DHT22;35761;48.826;9.238;2023-04-24T06:05:22;10.00;71.20
49861;DHT22;35761;48.826;9.238;2023-04-24T06:07:53;10.00;71.20
49861;DHT22;35761;48.826;9.238;2023-04-24T06:10:27;10.00;69.70
49861;DHT22;35761;48.826;9.238;2023-04-24T06:12:57;10.00;71.00
49861;DHT22;35761;48.826;9.238;2023-04-24T06:15:33;9.90;71.30
49861;DHT22;35761;48.826;9.238;2023-04-24T06:18:07;9.90;70.80
49861;DHT22;35761;48.826;9.238;2023-04-24T06:20:39;9.90;70.90
49861;DHT22;35761;48.826;9.238;2023-04-24T06:23:09;10.00;70.10
49861;DHT22;35761;48.826;9.238;2023-04-24T06:25:40;10.10;70.60
49861;DHT22;35761;48.826;9.238;2023-04-24T06:28:11;10.00;70.90
49861;DHT22;35761;48.826;9.238;2023-04-24T06:30:45;10.00;71.30
49861;DHT22;35761;48.826;9.238;2023-04-24T06:33:16;10.00;71.20
49861;DHT22;35761;48.826;9.238;2023-04-24T06:35:49;10.10;69.10
49861;DHT22;35761;48.826;9.238;2023-04-24T06:38:20;10.10;68.80
49861;DHT22;35761;48.826;9.238;2023-04-24T06:40:50;10.20;67.70
49861;DHT22;35761;48.826;9.238;2023-04-24T06:43:21;10.20;69.30
49861;DHT22;35761;48.826;9.238;2023-04-24T06:45:54;10.20;69.40
49861;DHT22;35761;48.826;9.238;2023-04-24T06:48:25;10.20;71.40
49861;DHT22;35761;48.826;9.238;2023-04-24T06:50:55;10.20;72.80
49861;DHT22;35761;48.826;9.238;2023-04-24T06:53:26;10.40;68.30
49861;DHT22;35761;48.826;9.238;2023-04-24T06:55:56;10.50;68.00
49861;DHT22;35761;48.826;9.238;2023-04-24T06:58:27;10.40;67.40
49861;DHT22;35761;48.826;9.238;2023-04-24T07:01:00;10.50;69.00
49861;DHT22;35761;48.826;9.238;2023-04-24T07:03:30;10.60;71.10
49861;DHT22;35761;48.826;9.238;2023-04-24T07:08:32;10.70;73.50
49861;DHT22;35761;48.826;9.238;2023-04-24T07:11:04;10.80;69.50
49861;DHT22;35761;48.826;9.238;2023-04-24T07:13:34;10.90;68.40
49861;DHT22;35761;48.826;9.238;2023-04-24T07:16:11;11.10;69.70
49861;DHT22;35761;48.826;9.238;2023-04-24T07:18:42;11.20;71.60
49861;DHT22;35761;48.826;9.238;2023-04-24T07:21:12;11.20;58.60
49861;DHT22;35761;48.826;9.238;2023-04-24T07:23:43;11.30;56.30
49861;DHT22;35761;48.826;9.238;2023-04-24T07:26:13;11.20;53.50
49861;DHT22;35761;48.826;9.238;2023-04-24T07:28:44;11.20;53.80
49861;DHT22;35761;48.826;9.238;2023-04-24T07:31:17;11.10;53.30
49861;DHT22;35761;48.826;9.238;2023-04-24T07:33:48;11.10;53.30
49861;DHT22;35761;48.826;9.238;2023-04-24T07:36:19;11.20;52.20
49861;DHT22;35761;48.826;9.238;2023-04-24T07:38:49;11.20;51.80
49861;DHT22;35761;48.826;9.238;2023-04-24T07:41:20;11.30;52.00
49861;DHT22;35761;48.826;9.238;2023-04-24T07:43:51;11.30;50.00
49861;DHT22;35761;48.826;9.238;2023-04-24T07:46:25;11.30;49.10
49861;DHT22;35761;48.826;9.238;2023-04-24T07:48:57;11.20;47.70
49861;DHT22;35761;48.826;9.238;2023-04-24T07:51:40;11.30;46.80
49861;DHT22;35761;48.826;9.238;2023-04-24T07:54:11;11.40;45.20
49861;DHT22;35761;48.826;9.238;2023-04-24T07:56:42;11.40;44.50
49861;DHT22;35761;48.826;9.238;2023-04-24T07:59:13;11.50;43.10
49861;DHT22;35761;48.826;9.238;2023-04-24T08:01:46;11.60;44.60
49861;DHT22;35761;48.826;9.238;2023-04-24T08:04:17;11.70;40.50
49861;DHT22;35761;48.826;9.238;2023-04-24T08:06:49;11.50;40.50
49861;DHT22;35761;48.826;9.238;2023-04-24T08:09:19;11.40;41.20
49861;DHT22;35761;48.826;9.238;2023-04-24T08:11:53;11.40;40.40
49861;DHT22;35761;48.826;9.238;2023-04-24T08:14:23;11.40;41.50
49861;DHT22;35761;48.826;9.238;2023-04-24T08:16:57;11.40;40.90
49861;DHT22;35761;48.826;9.238;2023-04-24T08:19:28;11.60;40.40
49861;DHT22;35761;48.826;9.238;2023-04-24T08:21:59;11.60;40.90
49861;DHT22;35761;48.826;9.238;2023-04-24T08:24:29;11.70;39.80
49861;DHT22;35761;48.826;9.238;2023-04-24T08:27:00;11.70;40.10
49861;DHT22;35761;48.826;9.238;2023-04-24T08:29:30;11.70;38.80
49861;DHT22;35761;48.826;9.238;2023-04-24T08:32:03;11.70;39.40
49861;DHT22;35761;48.826;9.238;2023-04-24T08:34:34;11.70;42.80
49861;DHT22;35761;48.826;9.238;2023-04-24T08:37:05;11.70;42.10
49861;DHT22;35761;48.826;9.238;2023-04-24T08:39:36;11.80;42.00
49861;DHT22;35761;48.826;9.238;2023-04-24T08:42:06;11.80;40.40
49861;DHT22;35761;48.826;9.238;2023-04-24T08:44:37;11.70;41.10
49861;DHT22;35761;48.826;9.238;2023-04-24T08:47:11;11.70;41.80
49861;DHT22;35761;48.826;9.238;2023-04-24T08:49:43;11.70;40.30
49861;DHT22;35761;48.826;9.238;2023-04-24T08:52:13;11.70;40.30
49861;DHT22;35761;48.826;9.238;2023-04-24T08:54:46;11.60;40.60
49861;DHT22;35761;48.826;9.238;2023-04-24T08:57:18;11.60;41.40
49861;DHT22;35761;48.826;9.238;2023-04-24T08:59:49;11.50;41.00
49861;DHT22;35761;48.826;9.238;2023-04-24T09:02:23;11.50;40.80
49861;DHT22;35761;48.826;9.238;2023-04-24T09:04:55;11.50;40.90
49861;DHT22;35761;48.826;9.238;2023-04-24T09:07:27;11.60;41.30
49861;DHT22;35761;48.826;9.238;2023-04-24T09:10:01;11.70;41.20
49861;DHT22;35761;48.826;9.238;2023-04-24T09:12:32;11.90;40.20
49861;DHT22;35761;48.826;9.238;2023-04-24T09:15:05;11.60;39.70
49861;DHT22;35761;48.826;9.238;2023-04-24T09:17:40;11.60;38.90
49861;DHT22;35761;48.826;9.238;2023-04-24T09:20:10;11.60;39.00
49861;DHT22;35761;48.826;9.238;2023-04-24T09:22:42;11.50;39.20
49861;DHT22;35761;48.826;9.238;2023-04-24T09:25:13;11.50;39.70
49861;DHT22;35761;48.826;9.238;2023-04-24T09:27:44;11.40;40.10
49861;DHT22;35761;48.826;9.238;2023-04-24T09:30:21;11.10;43.20
49861;DHT22;35761;48.826;9.238;2023-04-24T09:33:10;11.00;45.10
49861;DHT22;35761;48.826;9.238;2023-04-24T09:35:41;10.70;46.50
49861;DHT22;35761;48.826;9.238;2023-04-24T09:38:13;10.50;45.90
49861;DHT22;35761;48.826;9.238;2023-04-24T09:40:43;10.50;48.10
49861;DHT22;35761;48.826;9.238;2023-04-24T09:43:14;10.70;47.80
49861;DHT22;35761;48.826;9.238;2023-04-24T09:45:44;10.70;45.10
49861;DHT22;35761;48.826;9.238;2023-04-24T09:48:17;10.70;45.90
49861;DHT22;35761;48.826;9.238;2023-04-24T09:50:48;10.70;45.40
49861;DHT22;35761;48.826;9.238;2023-04-24T09:53:24;10.90;46.80
49861;DHT22;35761;48.826;9.238;2023-04-24T09:55:56;11.10;44.60
49861;DHT22;35761;48.826;9.238;2023-04-24T09:58:27;11.20;44.10
49861;DHT22;35761;48.826;9.238;2023-04-24T10:00:58;11.20;44.70
49861;DHT22;35761;48.826;9.238;2023-04-24T10:03:33;11.40;41.90
49861;DHT22;35761;48.826;9.238;2023-04-24T10:06:04;11.30;40.40
49861;DHT22;35761;48.826;9.238;2023-04-24T10:08:37;11.20;39.80
49861;DHT22;35761;48.826;9.238;2023-04-24T10:11:07;11.30;40.80
49861;DHT22;35761;48.826;9.238;2023-04-24T10:13:39;11.40;38.70
49861;DHT22;35761;48.826;9.238;2023-04-24T10:16:10;11.50;39.30
49861;DHT22;35761;48.826;9.238;2023-04-24T10:18:44;11.60;39.00
49861;DHT22;35761;48.826;9.238;2023-04-24T10:21:14;11.60;38.20
49861;DHT22;35761;48.826;9.238;2023-04-24T10:23:45;11.50;37.90
49861;DHT22;35761;48.826;9.238;2023-04-24T10:26:17;11.50;37.00
49861;DHT22;35761;48.826;9.238;2023-04-24T10:28:48;11.50;36.80
49861;DHT22;35761;48.826;9.238;2023-04-24T10:31:19;11.60;36.20
49861;DHT22;35761;48.826;9.238;2023-04-24T10:33:53;11.60;34.10
49861;DHT22;35761;48.826;9.238;2023-04-24T10:36:25;11.70;35.00
49861;DHT22;35761;48.826;9.238;2023-04-24T10:39:01;11.70;34.30
49861;DHT22;35761;48.826;9.238;2023-04-24T10:41:32;11.70;35.60
49861;DHT22;35761;48.826;9.238;2023-04-24T10:44:05;11.70;35.60
49861;DHT22;35761;48.826;9.238;2023-04-24T10:46:37;11.70;35.20
49861;DHT22;35761;48.826;9.238;2023-04-24T10:49:11;11.50;35.20
49861;DHT22;35761;48.826;9.238;2023-04-24T10:51:46;11.50;35.60
49861;DHT22;35761;48.826;9.238;2023-04-24T10:54:25;11.70;35.60
49861;DHT22;35761;48.826;9.238;2023-04-24T10:57:26;11.60;36.20
49861;DHT22;35761;48.826;9.238;2023-04-24T11:00:15;11.60;36.40
49861;DHT22;35761;48.826;9.238;2023-04-24T11:02:48;11.50;36.90
49861;DHT22;35761;48.826;9.238;2023-04-24T11:05:24;11.80;36.50
49861;DHT22;35761;48.826;9.238;2023-04-24T11:08:29;11.80;36.20
49861;DHT22;35761;48.826;9.238;2023-04-24T11:11:03;11.80;36.50
49861;DHT22;35761;48.826;9.238;2023-04-24T11:14:04;11.90;34.90
49861;DHT22;35761;48.826;9.238;2023-04-24T11:16:42;11.80;35.60
49861;DHT22;35761;48.826;9.238;2023-04-24T11:19:24;11.80;36.70
49861;DHT22;35761;48.826;9.238;2023-04-24T11:22:00;11.80;35.70
49861;DHT22;35761;48.826;9.238;2023-04-24T11:24:33;11.80;36.80
49861;DHT22;35761;48.826;9.238;2023-04-24T11:27:17;11.80;36.00
49861;DHT22;35761;48.826;9.238;2023-04-24T11:29:59;11.70;36.70
49861;DHT22;35761;48.826;9.238;2023-04-24T11:32:35;11.90;36.20
49861;DHT22;35761;48.826;9.238;2023-04-24T11:35:12;12.00;35.80
49861;DHT22;35761;48.826;9.238;2023-04-24T11:37:47;11.90;35.70
49861;DHT22;35761;48.826;9.238;2023-04-24T11:40:39;11.90;35.30
49861;DHT22;35761;48.826;9.238;2023-04-24T11:43:10;11.80;35.50
49861;DHT22;35761;48.826;9.238;2023-04-24T11:45:48;11.90;35.90
49861;DHT22;35761;48.826;9.238;2023-04-24T11:48:19;12.00;35.00
49861;DHT22;35761;48.826;9.238;2023-04-24T11:50:51;12.10;35.40
49861;DHT22;35761;48.826;9.238;2023-04-24T11:53:24;12.10;35.80
49861;DHT22;35761;48.826;9.238;2023-04-24T11:55:54;11.90;36.20
49861;DHT22;35761;48.826;9.238;2023-04-24T11:58:25;11.90;37.20
49861;DHT22;35761;48.826;9.238;2023-04-24T12:00:56;11.80;39.20
49861;DHT22;35761;48.826;9.238;2023-04-24T12:03:28;11.80;39.30
49861;DHT22;35761;48.826;9.238;2023-04-24T12:06:05;11.80;39.60
49861;DHT22;35761;48.826;9.238;2023-04-24T12:08:39;11.80;37.00
49861;DHT22;35761;48.826;9.238;2023-04-24T12:11:10;11.80;38.40
49861;DHT22;35761;48.826;9.238;2023-04-24T12:13:40;11.90;38.50
49861;DHT22;35761;48.826;9.238;2023-04-24T12:16:11;11.80;37.50
49861;DHT22;35761;48.826;9.238;2023-04-24T12:18:42;11.90;37.50
49861;DHT22;35761;48.826;9.238;2023-04-24T12:21:18;11.90;37.80
49861;DHT22;35761;48.826;9.238;2023-04-24T12:23:54;11.90;36.70
49861;DHT22;35761;48.826;9.238;2023-04-24T12:26:27;11.90;37.00
49861;DHT22;35761;48.826;9.238;2023-04-24T12:29:01;11.80;37.50
49861;DHT22;35761;48.826;9.238;2023-04-24T12:31:34;11.80;37.80
49861;DHT22;35761;48.826;9.238;2023-04-24T12:34:04;11.90;38.00
49861;DHT22;35761;48.826;9.238;2023-04-24T12:36:47;11.90;36.90
49861;DHT22;35761;48.826;9.238;2023-04-24T12:39:20;11.80;37.10
49861;DHT22;35761;48.826;9.238;2023-04-24T12:41:57;11.80;36.90
49861;DHT22;35761;48.826;9.238;2023-04-24T12:44:31;11.70;36.80
49861;DHT22;35761;48.826;9.238;2023-04-24T12:47:04;11.70;36.50
49861;DHT22;35761;48.826;9.238;2023-04-24T12:49:35;11.70;37.00
49861;DHT22;35761;48.826;9.238;2023-04-24T12:52:06;11.70;37.20
49861;DHT22;35761;48.826;9.238;2023-04-24T12:54:39;11.70;37.10
49861;DHT22;35761;48.826;9.238;2023-04-24T12:57:10;11.80;37.10
49861;DHT22;35761;48.826;9.238;2023-04-24T12:59:40;11.80;37.00
49861;DHT22;35761;48.826;9.238;2023-04-24T13:02:11;11.90;36.90
49861;DHT22;35761;48.826;9.238;2023-04-24T13:04:45;11.90;36.50
49861;DHT22;35761;48.826;9.238;2023-04-24T13:07:17;11.70;37.90
49861;DHT22;35761;48.826;9.238;2023-04-24T13:09:51;11.60;41.70
49861;DHT22;35761;48.826;9.238;2023-04-24T13:12:22;11.40;44.30
49861;DHT22;35761;48.826;9.238;2023-04-24T13:14:53;11.30;46.70
49861;DHT22;35761;48.826;9.238;2023-04-24T13:17:24;11.30;48.60
49861;DHT22;35761;48.826;9.238;2023-04-24T13:19:55;11.50;47.60
49861;DHT22;35761;48.826;9.238;2023-04-24T13:22:25;11.70;46.30
49861;DHT22;35761;48.826;9.238;2023-04-24T13:24:59;11.90;44.50
49861;DHT22;35761;48.826;9.238;2023-04-24T13:27:30;11.90;43.20
49861;DHT22;35761;48.826;9.238;2023-04-24T13:30:00;11.90;43.30
49861;DHT22;35761;48.826;9.238;2023-04-24T13:32:32;11.80;44.10
49861;DHT22;35761;48.826;9.238;2023-04-24T13:35:03;11.90;43.50
49861;DHT22;35761;48.826;9.238;2023-04-24T13:37:34;12.00;41.40
49861;DHT22;35761;48.826;9.238;2023-04-24T13:40:09;12.00;40.10
49861;DHT22;35761;48.826;9.238;2023-04-24T13:42:40;12.00;40.50
49861;DHT22;35761;48.826;9.238;2023-04-24T13:45:11;12.20;39.30
49861;DHT22;35761;48.826;9.238;2023-04-24T13:47:51;12.20;40.20
49861;DHT22;35761;48.826;9.238;2023-04-24T13:50:24;12.00;40.10
49861;DHT22;35761;48.826;9.238;2023-04-24T13:52:55;12.00;38.50
49861;DHT22;35761;48.826;9.238;2023-04-24T13:55:31;12.00;38.20
49861;DHT22;35761;48.826;9.238;2023-04-24T13:58:02;12.00;37.80
49861;DHT22;35761;48.826;9.238;2023-04-24T14:00:33;11.90;42.70
49861;DHT22;35761;48.826;9.238;2023-04-24T14:03:04;11.70;43.10
49861;DHT22;35761;48.826;9.238;2023-04-24T14:05:34;11.80;43.80
49861;DHT22;35761;48.826;9.238;2023-04-24T14:08:05;11.90;44.00
49861;DHT22;35761;48.826;9.238;2023-04-24T14:10:38;12.10;43.50
49861;DHT22;35761;48.826;9.238;2023-04-24T14:13:08;12.40;43.80
49861;DHT22;35761;48.826;9.238;2023-04-24T14:15:39;12.80;40.70
49861;DHT22;35761;48.826;9.238;2023-04-24T14:18:10;12.80;39.40
49861;DHT22;35761;48.826;9.238;2023-04-24T14:20:41;12.60;41.00
49861;DHT22;35761;48.826;9.238;2023-04-24T14:23:11;12.80;41.90
49861;DHT22;35761;48.826;9.238;2023-04-24T14:25:47;13.20;39.80
49861;DHT22;35761;48.826;9.238;2023-04-24T14:28:20;13.50;42.10
49861;DHT22;35761;48.826;9.238;2023-04-24T14:30:51;13.60;39.80
49861;DHT22;35761;48.826;9.238;2023-04-24T14:33:21;13.40;39.50
49861;DHT22;35761;48.826;9.238;2023-04-24T14:35:52;13.50;38.60
49861;DHT22;35761;48.826;9.238;2023-04-24T14:38:22;13.60;38.30
49861;DHT22;35761;48.826;9.238;2023-04-24T14:40:56;13.70;37.70
49861;DHT22;35761;48.826;9.238;2023-04-24T14:43:30;13.70;38.40
49861;DHT22;35761;48.826;9.238;2023-04-24T14:46:02;13.90;37.90
49861;DHT22;35761;48.826;9.238;2023-04-24T14:48:33;14.00;37.50
49861;DHT22;35761;48.826;9.238;2023-04-24T14:51:03;14.00;38.20
49861;DHT22;35761;48.826;9.238;2023-04-24T14:53:34;13.60;38.60
49861;DHT22;35761;48.826;9.238;2023-04-24T14:56:07;13.40;38.60
49861;DHT22;35761;48.826;9.238;2023-04-24T14:58:38;13.30;39.30
49861;DHT22;35761;48.826;9.238;2023-04-24T15:01:08;13.50;38.90
49861;DHT22;35761;48.826;9.238;2023-04-24T15:03:39;13.70;38.00
49861;DHT22;35761;48.826;9.238;2023-04-24T15:06:09;13.50;38.20
49861;DHT22;35761;48.826;9.238;2023-04-24T15:08:40;13.60;38.10
49861;DHT22;35761;48.826;9.238;2023-04-24T15:11:13;13.70;37.80
49861;DHT22;35761;48.826;9.238;2023-04-24T15:13:43;13.90;37.30
49861;DHT22;35761;48.826;9.238;2023-04-24T15:16:15;14.00;36.10
49861;DHT22;35761;48.826;9.238;2023-04-24T15:18:45;13.90;36.00
49861;DHT22;35761;48.826;9.238;2023-04-24T15:21:16;13.60;36.60
49861;DHT22;35761;48.826;9.238;2023-04-24T15:23:47;13.50;37.00
49861;DHT22;35761;48.826;9.238;2023-04-24T15:26:20;13.20;50.50
49861;DHT22;35761;48.826;9.238;2023-04-24T15:28:51;12.90;47.10
49861;DHT22;35761;48.826;9.238;2023-04-24T15:31:22;12.90;42.00
49861;DHT22;35761;48.826;9.238;2023-04-24T15:33:52;12.90;40.90
49861;DHT22;35761;48.826;9.238;2023-04-24T15:36:23;12.80;42.30
49861;DHT22;35761;48.826;9.238;2023-04-24T15:38:53;12.80;41.90
49861;DHT22;35761;48.826;9.238;2023-04-24T15:41:27;12.10;33.80
49861;DHT22;35761;48.826;9.238;2023-04-24T15:43:58;12.00;50.40
49861;DHT22;35761;48.826;9.238;2023-04-24T15:49:00;11.60;37.40
49861;DHT22;35761;48.826;9.238;2023-04-24T15:51:31;11.60;39.90
49861;DHT22;35761;48.826;9.238;2023-04-24T15:54:01;11.70;41.00
49861;DHT22;35761;48.826;9.238;2023-04-24T15:56:35;11.80;41.50
49861;DHT22;35761;48.826;9.238;2023-04-24T15:59:05;11.80;39.20
49861;DHT22;35761;48.826;9.238;2023-04-24T16:01:36;12.00;39.90
49861;DHT22;35761;48.826;9.238;2023-04-24T16:04:07;12.20;38.70
49861;DHT22;35761;48.826;9.238;2023-04-24T16:06:38;12.50;36.40
49861;DHT22;35761;48.826;9.238;2023-04-24T16:09:08;12.70;36.80
49861;DHT22;35761;48.826;9.238;2023-04-24T16:11:42;12.90;36.60